sensor_id;sensor_type;location;lat;lon;timestamp;pressure;altitude;pressure_sealevel;temperature;humidity
3832;BME280;12460;42.662;23.288;2023-02-21T00:04:14;94908.69;;;6.21;53.50
3832;BME280;12460;42.662;23.288;2023-02-21T00:19:38;94919.50;;;6.12;54.01
3832;BME280;12460;42.662;23.288;2023-02-21T00:35:03;94889.28;;;5.97;54.43
3832;BME280;12460;42.662;23.288;2023-02-21T00:50:27;94891.63;;;5.93;55.03
3832;BME280;12460;42.662;23.288;2023-02-21T01:05:52;94859.34;;;5.98;53.84
3832;BME280;12460;42.662;23.288;2023-02-21T01:21:16;94825.50;;;5.88;54.60
3832;BME280;12460;42.662;23.288;2023-02-21T01:36:41;94825.53;;;6.01;54.10
3832;BME280;12460;42.662;23.288;2023-02-21T01:52:05;94820.91;;;5.91;54.17
3832;BME280;12460;42.662;23.288;2023-02-21T02:07:29;94794.50;;;5.92;54.74
3832;BME280;12460;42.662;23.288;2023-02-21T02:38:31;94780.78;;;6.20;54.25
3832;BME280;12460;42.662;23.288;2023-02-21T02:53:38;94767.78;;;6.09;54.55
3832;BME280;12460;42.662;23.288;2023-02-21T03:09:00;94778.63;;;6.13;53.82
3832;BME280;12460;42.662;23.288;2023-02-21T03:24:09;94768.31;;;5.95;54.89
3832;BME280;12460;42.662;23.288;2023-02-21T03:39:14;94750.16;;;5.88;54.36
3832;BME280;12460;42.662;23.288;2023-02-21T03:54:18;94762.69;;;5.69;54.51
3832;BME280;12460;42.662;23.288;2023-02-21T04:09:26;94744.44;;;5.68;54.93
3832;BME280;12460;42.662;23.288;2023-02-21T04:24:30;94815.34;;;5.72;55.14
3832;BME280;12460;42.662;23.288;2023-02-21T04:39:36;94805.19;;;5.75;54.71
3832;BME280;12460;42.662;23.288;2023-02-21T04:54:41;94800.53;;;5.64;55.49
3832;BME280;12460;42.662;23.288;2023-02-21T05:09:46;94769.44;;;5.73;55.25
3832;BME280;12460;42.662;23.288;2023-02-21T05:24:50;94733.63;;;5.77;54.48
3832;BME280;12460;42.662;23.288;2023-02-21T05:39:55;94762.28;;;5.78;55.39
3832;BME280;12460;42.662;23.288;2023-02-21T05:55:00;94781.94;;;8.42;49.10
3832;BME280;12460;42.662;23.288;2023-02-21T06:10:05;94781.03;;;11.17;42.04
3832;BME280;12460;42.662;23.288;2023-02-21T06:25:09;94791.66;;;13.33;37.28
3832;BME280;12460;42.662;23.288;2023-02-21T06:40:13;94792.81;;;13.47;36.68
3832;BME280;12460;42.662;23.288;2023-02-21T06:55:23;94793.00;;;12.98;37.40
3832;BME280;12460;42.662;23.288;2023-02-21T07:10:28;94803.03;;;12.57;38.00
3832;BME280;12460;42.662;23.288;2023-02-21T07:25:34;94795.97;;;11.35;40.06
3832;BME280;12460;42.662;23.288;2023-02-21T07:40:38;94782.84;;;11.37;40.68
3832;BME280;12460;42.662;23.288;2023-02-21T07:55:43;94761.72;;;11.85;40.22
3832;BME280;12460;42.662;23.288;2023-02-21T08:10:47;94772.03;;;11.18;41.40
3832;BME280;12460;42.662;23.288;2023-02-21T08:25:52;94759.44;;;11.19;41.42
3832;BME280;12460;42.662;23.288;2023-02-21T08:40:56;94751.84;;;11.77;40.03
3832;BME280;12460;42.662;23.288;2023-02-21T08:56:01;94732.91;;;11.95;39.74
3832;BME280;12460;42.662;23.288;2023-02-21T09:11:06;94733.13;;;12.14;39.64
3832;BME280;12460;42.662;23.288;2023-02-21T09:26:11;94729.56;;;13.69;37.40
3832;BME280;12460;42.662;23.288;2023-02-21T09:41:16;94693.53;;;16.82;32.04
3832;BME280;12460;42.662;23.288;2023-02-21T09:56:37;94681.50;;;18.63;29.34
3832;BME280;12460;42.662;23.288;2023-02-21T10:27:20;94616.69;;;23.19;22.31
3832;BME280;12460;42.662;23.288;2023-02-21T10:42:42;94583.00;;;24.90;19.28
3832;BME280;12460;42.662;23.288;2023-02-21T10:57:55;94567.44;;;26.11;18.04
3832;BME280;12460;42.662;23.288;2023-02-21T11:13:04;94529.41;;;26.70;17.44
3832;BME280;12460;42.662;23.288;2023-02-21T11:43:20;94496.81;;;26.38;17.24
3832;BME280;12460;42.662;23.288;2023-02-21T11:58:55;94466.72;;;25.94;17.68
3832;BME280;12460;42.662;23.288;2023-02-21T13:00:19;94410.06;;;22.64;20.85
3832;BME280;12460;42.662;23.288;2023-02-21T13:15:28;94395.81;;;22.66;21.16
3832;BME280;12460;42.662;23.288;2023-02-21T13:30:38;94373.28;;;22.23;21.15
3832;BME280;12460;42.662;23.288;2023-02-21T13:45:44;94359.78;;;21.75;20.89
3832;BME280;12460;42.662;23.288;2023-02-21T14:00:51;94344.53;;;21.37;21.98
3832;BME280;12460;42.662;23.288;2023-02-21T14:16:24;94343.94;;;20.60;22.69
3832;BME280;12460;42.662;23.288;2023-02-21T15:03:40;94331.69;;;18.87;22.80
3832;BME280;12460;42.662;23.288;2023-02-21T15:18:27;94329.72;;;18.50;22.74
3832;BME280;12460;42.662;23.288;2023-02-21T15:33:37;94337.91;;;18.05;23.72
3832;BME280;12460;42.662;23.288;2023-02-21T15:48:42;94351.59;;;17.59;23.63
3832;BME280;12460;42.662;23.288;2023-02-21T16:03:47;94353.53;;;17.08;24.87
3832;BME280;12460;42.662;23.288;2023-02-21T16:18:55;94384.56;;;16.57;25.39
3832;BME280;12460;42.662;23.288;2023-02-21T16:34:00;94396.91;;;16.18;25.71
3832;BME280;12460;42.662;23.288;2023-02-21T16:49:07;94392.41;;;15.70;26.01
3832;BME280;12460;42.662;23.288;2023-02-21T17:04:22;94390.66;;;15.23;26.44
3832;BME280;12460;42.662;23.288;2023-02-21T17:19:27;94403.09;;;14.87;27.52
3832;BME280;12460;42.662;23.288;2023-02-21T17:34:34;94405.31;;;14.58;27.70
3832;BME280;12460;42.662;23.288;2023-02-21T17:49:39;94411.94;;;14.32;28.84
3832;BME280;12460;42.662;23.288;2023-02-21T18:04:43;94406.78;;;13.90;29.47
3832;BME280;12460;42.662;23.288;2023-02-21T18:19:48;94431.81;;;13.74;29.34
3832;BME280;12460;42.662;23.288;2023-02-21T18:34:53;94423.91;;;13.54;29.85
3832;BME280;12460;42.662;23.288;2023-02-21T18:50:00;94436.25;;;13.39;30.04
3832;BME280;12460;42.662;23.288;2023-02-21T19:05:05;94441.44;;;13.23;30.52
3832;BME280;12460;42.662;23.288;2023-02-21T19:20:10;94441.56;;;13.06;31.35
3832;BME280;12460;42.662;23.288;2023-02-21T19:35:15;94454.75;;;13.04;31.99
3832;BME280;12460;42.662;23.288;2023-02-21T19:50:19;94472.78;;;13.18;32.67
3832;BME280;12460;42.662;23.288;2023-02-21T20:05:24;94481.97;;;13.18;32.83
3832;BME280;12460;42.662;23.288;2023-02-21T20:20:30;94480.63;;;13.10;33.21
3832;BME280;12460;42.662;23.288;2023-02-21T20:35:34;94488.72;;;12.96;33.78
3832;BME280;12460;42.662;23.288;2023-02-21T20:50:39;94494.41;;;12.70;34.39
3832;BME280;12460;42.662;23.288;2023-02-21T21:05:45;94483.03;;;12.50;35.38
3832;BME280;12460;42.662;23.288;2023-02-21T21:20:53;94465.09;;;12.29;36.12
3832;BME280;12460;42.662;23.288;2023-02-21T21:35:58;94463.34;;;12.33;36.11
3832;BME280;12460;42.662;23.288;2023-02-21T21:51:02;94469.69;;;12.24;36.48
3832;BME280;12460;42.662;23.288;2023-02-21T22:06:07;94460.31;;;12.22;36.77
3832;BME280;12460;42.662;23.288;2023-02-21T22:21:14;94457.72;;;12.33;36.67
3832;BME280;12460;42.662;23.288;2023-02-21T22:36:19;94461.66;;;12.47;36.43
3832;BME280;12460;42.662;23.288;2023-02-21T22:51:27;94450.72;;;12.61;35.94
3832;BME280;12460;42.662;23.288;2023-02-21T23:06:31;94466.19;;;12.70;35.07
3832;BME280;12460;42.662;23.288;2023-02-21T23:21:48;94486.03;;;12.89;34.35
3832;BME280;12460;42.662;23.288;2023-02-21T23:36:55;94487.66;;;12.29;36.22
3832;BME280;12460;42.662;23.288;2023-02-21T23:52:01;94507.41;;;11.26;38.37
